createdAt,value
2024-02-05T00:02:30.063Z,59.98
2024-02-05T00:17:31.859Z,64.42
2024-02-05T00:32:33.758Z,65.67
2024-02-05T00:47:35.671Z,67.94
2024-02-05T01:02:40.177Z,67.60
2024-02-05T01:17:42.173Z,71.33
2024-02-05T01:32:44.359Z,71.07
2024-02-05T01:47:54.844Z,70.89
2024-02-05T02:02:57.461Z,73.49
2024-02-05T02:18:03.605Z,75.88
2024-02-05T02:33:18.637Z,77.17
2024-02-05T02:48:21.114Z,82.59
2024-02-05T03:03:23.024Z,81.02
2024-02-05T03:18:24.844Z,82.33
2024-02-05T03:33:26.624Z,84.17
2024-02-05T03:48:28.385Z,78.71
2024-02-05T04:03:30.146Z,78.89
2024-02-05T04:18:31.941Z,77.38
2024-02-05T04:33:36.417Z,76.35
2024-02-05T04:48:38.993Z,73.97
2024-02-05T05:03:41.031Z,74.93
2024-02-05T05:18:43.370Z,73.75
2024-02-05T05:33:46.773Z,76.58
2024-02-05T05:48:48.661Z,74.63
2024-02-05T06:03:50.615Z,74.83
2024-02-05T06:18:52.536Z,73.57
2024-02-05T06:33:54.390Z,74.59
2024-02-05T06:48:56.270Z,73.50
2024-02-05T07:03:58.056Z,72.05
2024-02-05T07:18:59.909Z,71.24
2024-02-05T07:34:01.846Z,69.48
2024-02-05T07:49:04.419Z,67.18
2024-02-05T08:04:07.028Z,66.94
2024-02-05T08:19:09.912Z,67.44
2024-02-05T08:34:12.589Z,65.83
2024-02-05T08:49:14.767Z,60.16
2024-02-05T09:04:16.719Z,60.33
2024-02-05T09:19:20.234Z,51.24
2024-02-05T09:34:22.598Z,44.43
2024-02-05T09:49:24.858Z,41.94
2024-02-05T10:04:27.879Z,40.82
2024-02-05T10:19:30.663Z,39.06
2024-02-05T10:34:32.940Z,38.37
2024-02-05T10:49:34.979Z,38.18
2024-02-05T11:04:37.115Z,37.80
2024-02-05T11:19:40.742Z,38.04
2024-02-05T11:34:44.437Z,37.31
2024-02-05T11:49:46.631Z,36.90
2024-02-05T12:04:48.635Z,36.34
2024-02-05T12:19:59.020Z,36.67
2024-02-05T12:35:01.345Z,37.00
2024-02-05T12:50:04.114Z,37.52
2024-02-05T13:05:08.996Z,37.40
2024-02-05T13:20:11.166Z,36.48
2024-02-05T13:35:13.037Z,36.90
2024-02-05T13:50:14.851Z,36.49
2024-02-05T14:05:16.887Z,36.25
2024-02-05T14:20:19.000Z,35.46
2024-02-05T14:35:21.160Z,36.27
2024-02-05T14:50:23.078Z,36.44
2024-02-05T15:05:25.396Z,36.78
2024-02-05T15:20:27.607Z,37.37
2024-02-05T15:35:29.722Z,38.62
2024-02-05T15:50:31.605Z,38.55
2024-02-05T16:05:33.857Z,40.26
2024-02-05T16:20:39.145Z,39.47
2024-02-05T16:35:42.889Z,40.87
2024-02-05T16:50:44.683Z,41.00
2024-02-05T17:05:46.423Z,39.72
2024-02-05T17:20:48.256Z,40.37
2024-02-05T17:35:50.203Z,40.14
2024-02-05T17:50:54.120Z,40.52
2024-02-05T18:05:55.838Z,41.21
2024-02-05T18:20:57.623Z,41.39
2024-02-05T18:35:59.496Z,40.14
2024-02-05T18:51:01.379Z,38.10
2024-02-05T19:06:03.250Z,38.30
2024-02-05T19:21:05.505Z,39.22
2024-02-05T19:36:07.414Z,39.00
2024-02-05T19:51:09.174Z,38.35
2024-02-05T20:06:11.052Z,38.60
2024-02-05T20:21:15.184Z,38.44
2024-02-05T20:36:17.108Z,38.47
2024-02-05T20:51:18.909Z,37.59
2024-02-05T21:06:20.722Z,37.04
2024-02-05T21:21:23.370Z,38.13
2024-02-05T21:36:25.186Z,38.89
2024-02-05T21:51:27.448Z,38.94
2024-02-05T22:06:29.167Z,38.53
2024-02-05T22:21:31.507Z,39.70
2024-02-05T22:36:34.261Z,39.59
2024-02-05T22:51:36.144Z,39.11
2024-02-05T23:06:37.999Z,38.28
2024-02-05T23:21:39.793Z,35.65
2024-02-05T23:36:42.069Z,35.65
2024-02-05T23:51:44.188Z,35.65
